Galahad, Canada
Current Conditions -  °F | °C
As of 9:00 PM on Saturday 25 Oct 2014 (Local Time) from CYQF Reporting Station
Few Clouds Few Clouds  
Wind Chill: 30°   Ceiling: Unl
Heat Index: 39°   Visibility: 15mi
Dew Point: 25°   Wind: 16mph
Humidity: 56%   Direction: 150°SSE
Pressure: 29.5"   Gusts: NA
Location:  52.52°N, 111.92°W
Report Text: CYQF 260300Z 15014KT 15SM FEW210 04/M04 A2950 RMK CI2 SLP025
Loading
Personal Weather Stations






























Interactive Weather Map
Tropical Storm Tracking
New forecast layout! Learn more

10-Day Weather Forecast

Advertisements
Track Severe Weather on mobile